Terminal Aerodrome Forecast
Issued by NWS

Home | Current Version | Previous Version | Text Only | Print | Product List | Glossary On
Versions: 1 2 3 4 5 6 7 8 9 10 11 12 13 14
000
FTUS44 KTSA 041738
TAFBVO
TAF
KBVO 041738Z 0418/0518 20005KT P6SM VCSH BKN110 BKN200
     FM042300 20002KT P6SM VCTS SCT050CB OVC100
     FM050300 09003KT P6SM OVC100
     FM051500 14006KT P6SM OVC200=

USA.gov is the U.S. government's official web portal to all federal, state and local government web resources and services.